Alpine, WY

2:57 AM MDT on August 21, 2014 (GMT -0600)
One Mile South of | Change Station
CLOSE
Current Station
Personal Weather Station
Location: Alpine, WY
Elevation: 5650 ft
Nearby Weather Stations

Elev 5650 ft 43.16 °N, 111.03 °W | Updated 3 seconds ago

Mostly Cloudy
Mostly Cloudy
51.6 °F
Feels Like 51.6 °F
N
0.0
Wind Variable Wind from ENE
Gusts 0.0 mph

Today
High -- | Low -- °F
--% Chance of Precip.
Yesterday
High -- | Low -- °F
Precip. -- in
6:36 AM 8:17 PM
Waning Crescent, 15% visible
Pressure 30.12 in
Visibility 10.0 miles
Clouds Mostly Cloudy 8000 ft
Mostly Cloudy 9000 ft
Dew Point 49 °F
Humidity 91%
Rainfall 0.00 in
Snow Depth Not available.
UV 0.0 out of 12
Pollen 8.30 out of 12
Air Quality Not available.
Flu Activity Not available.
METAR KAFO 210835Z AUTO 00000KT 10SM BKN080 BKN090 10/08 A3012 RMK AO2

More Conditions Fewer Conditions

Pressure 30.12 in
Visibility 10.0 miles
Clouds Mostly Cloudy 8000 ft
Mostly Cloudy 9000 ft
Dew Point 49 °F
Humidity 91%
Rainfall 0.00 in
Snow Depth Not available.
UV 0.0 out of 12
Pollen 8.30 out of 12
Air Quality Not available.
Flu Activity Not available.
METAR KAFO 210835Z AUTO 00000KT 10SM BKN080 BKN090 10/08 A3012 RMK AO2

More Conditions Fewer Conditions

10-Day Weather Forecast

Almanac

Astronomy

Aug. 21, 2014 Rise Set
Actual Time 6:36 AM MDT 8:17 PM MDT
Civil Twilight 6:06 AM MDT 8:47 PM MDT
Nautical Twilight 5:29 AM MDT 9:23 PM MDT
Astronomical Twilight 4:50 AM MDT 10:02 PM MDT
Moon 3:07 AM MDT 5:50 PM MDT
Length of Visible Light 14h 40m
Length of Day
13h 40m
Tomorrow will be 2m 43s shorter.
Waning Crescent, 15% of the Moon is Illuminated
Today
Waning Crescent
Aug 25
New
Sep 2
First Quarter
Sep 8
Full
Sep 15
Last Quarter

Today's Extremes

State Highs State Lows

Community

WunderPhotos

Upload Photos

1,745,866 photos uploaded!

Nearby

Snow Depth

Station Depth Elevation
Blind Bull Summit 1 in 8900 ft
Phillips Bench 0 in 8200 ft
Granite Creek 0 in 6770 ft
Salt River Summit 1 in 7600 ft
Loomis Park 0 in 8240 ft

Earthquake Activity

City Distance Mag. Time & Date
No recent earthquake activity has been reported nearby.
Minimum magnitude displayed is 2.5.

Coastal Water Temperatures

Place Temperature
No Stations Reporting

Nearby Weather Stations